Time;durP1;ratioP1;P1;durP2;ratioP2;P2;SDS_P1;SDS_P2;PMS_P1;PMS_P2;Temp;Humidity;BMP_temperature;BMP_pressure;BME280_temperature;BME280_humidity;BME280_pressure;Samples;Min_cycle;Max_cycle;Signal;HPM_P1;HPM_P2
2021/12/07 00:01:07;;;;;;;0.10;0.00;;;-4.30;92.70;;;;;;20814127;28;20037;-48
2021/12/07 00:11:11;;;;;;;0.15;0.00;;;-4.20;93.20;;;;;;20813462;28;20025;-52
2021/12/07 00:21:17;;;;;;;0.52;0.00;;;-4.40;92.70;;;;;;20812840;28;20398;-48
2021/12/07 00:31:26;;;;;;;0.00;0.00;;;-4.70;93.40;;;;;;20811844;28;20115;-49
2021/12/07 00:41:29;;;;;;;0.00;0.00;;;-5.10;94.80;;;;;;20811244;28;20050;-49
2021/12/07 00:51:33;;;;;;;0.45;0.00;;;-5.50;95.50;;;;;;20809971;28;20096;-48
2021/12/07 01:01:35;;;;;;;0.38;0.10;;;-5.40;96.80;;;;;;20810379;28;20080;-50
2021/12/07 01:43:12;;;;;;;0.08;0.00;;;-5.60;97.70;;;;;;20806865;28;20423;-51
2021/12/07 02:03:20;;;;;;;0.10;0.00;;;-6.10;98.60;;;;;;20804105;28;20548;-50
2021/12/07 02:23:47;;;;;;;0.20;0.10;;;-6.00;99.30;;;;;;20472180;28;20078;-50
2021/12/07 02:33:55;;;;;;;0.65;0.10;;;-6.20;99.90;;;;;;20455793;28;20098;-49
2021/12/07 02:43:59;;;;;;;0.60;0.10;;;-6.20;99.90;;;;;;20470777;28;20051;-48
2021/12/07 02:54:03;;;;;;;0.55;0.10;;;-6.00;99.90;;;;;;20536023;28;20501;-49
2021/12/07 03:04:15;;;;;;;0.65;0.13;;;-5.60;99.90;;;;;;20719260;28;20038;-48
2021/12/07 03:35:02;;;;;;;0.20;0.08;;;-5.50;99.90;;;;;;20771420;28;20045;-50
2021/12/07 03:45:10;;;;;;;0.60;0.30;;;-5.60;99.90;;;;;;20826313;28;20033;-48
2021/12/07 03:55:14;;;;;;;0.30;0.10;;;-5.00;99.00;;;;;;20826078;28;20346;-48
2021/12/07 04:05:19;;;;;;;0.57;0.20;;;-4.80;99.60;;;;;;20825854;28;20521;-48
2021/12/07 04:15:25;;;;;;;0.47;0.30;;;-5.00;99.50;;;;;;20841456;28;20033;-52
2021/12/07 04:25:28;;;;;;;0.93;0.40;;;-5.10;98.70;;;;;;20818242;28;20083;-50
2021/12/07 04:35:31;;;;;;;0.55;0.30;;;-5.10;99.80;;;;;;20811418;28;20045;-49
2021/12/07 05:06:09;;;;;;;0.22;0.17;;;-4.70;97.40;;;;;;20809844;28;20076;-49
2021/12/07 05:47:12;;;;;;;0.25;0.15;;;-5.70;99.50;;;;;;20806226;28;20037;-48
2021/12/07 05:57:14;;;;;;;0.88;0.10;;;-6.00;99.50;;;;;;20805205;28;20532;-50
2021/12/07 06:07:17;;;;;;;0.20;0.00;;;-6.30;99.90;;;;;;20804416;28;20030;-49
2021/12/07 06:17:19;;;;;;;0.98;0.10;;;-6.20;99.90;;;;;;20803863;28;20057;-52
2021/12/07 06:27:23;;;;;;;0.95;0.17;;;-6.20;99.90;;;;;;20803845;28;20094;-48
2021/12/07 06:37:26;;;;;;;0.15;0.00;;;-6.20;99.90;;;;;;20803280;28;20045;-48
2021/12/07 06:47:28;;;;;;;0.10;0.00;;;-6.20;99.40;;;;;;20801464;28;20033;-48
2021/12/07 06:57:31;;;;;;;1.38;0.15;;;-6.30;99.70;;;;;;20801361;28;20136;-48
2021/12/07 07:07:34;;;;;;;0.40;0.10;;;-6.30;99.70;;;;;;20801567;28;20034;-50
2021/12/07 07:17:37;;;;;;;0.25;0.00;;;-6.30;99.90;;;;;;20745044;28;20073;-49
2021/12/07 07:27:40;;;;;;;0.00;0.00;;;-6.10;99.90;;;;;;20718389;28;20053;-49
2021/12/07 07:37:43;;;;;;;0.00;0.00;;;-5.80;99.00;;;;;;20750250;28;20111;-48
2021/12/07 07:47:46;;;;;;;0.22;0.03;;;-5.40;99.30;;;;;;20799295;28;20076;-47
2021/12/07 07:57:48;;;;;;;0.43;0.10;;;-4.30;95.80;;;;;;20801029;28;20049;-48
2021/12/07 08:07:51;;;;;;;0.80;0.15;;;-2.90;93.90;;;;;;20814518;28;20687;-52
2021/12/07 08:17:54;;;;;;;1.65;0.00;;;-2.40;92.80;;;;;;20812971;28;20647;-48
2021/12/07 08:27:59;;;;;;;0.10;0.10;;;-1.60;94.30;;;;;;20795961;28;20037;-49
2021/12/07 08:38:03;;;;;;;0.75;0.15;;;-0.90;91.40;;;;;;20811405;28;20099;-51
2021/12/07 08:48:06;;;;;;;1.80;0.10;;;-0.60;90.80;;;;;;20794574;28;20118;-51
2021/12/07 09:08:29;;;;;;;0.23;0.10;;;0.70;89.00;;;;;;20810003;28;20446;-53
2021/12/07 09:18:32;;;;;;;0.30;0.00;;;1.30;89.30;;;;;;20744458;28;20486;-53
2021/12/07 09:28:36;;;;;;;0.90;0.10;;;2.20;87.90;;;;;;20726328;28;20410;-54
2021/12/07 09:38:40;;;;;;;0.73;0.10;;;3.20;82.40;;;;;;20781319;28;20046;-54
2021/12/07 09:48:44;;;;;;;0.20;0.10;;;3.60;84.40;;;;;;20806425;28;20048;-52
2021/12/07 09:58:50;;;;;;;1.08;0.40;;;4.40;80.90;;;;;;20805353;28;20029;-54
2021/12/07 10:08:52;;;;;;;0.70;0.20;;;5.00;80.80;;;;;;20804694;28;20095;-50
2021/12/07 10:18:55;;;;;;;0.17;0.10;;;4.80;78.20;;;;;;20804424;28;20042;-53
2021/12/07 10:29:01;;;;;;;0.20;0.00;;;5.30;78.50;;;;;;20802446;28;20355;-50
2021/12/07 10:39:17;;;;;;;0.10;0.10;;;5.80;73.50;;;;;;20802982;28;20037;-49
2021/12/07 10:49:42;;;;;;;0.20;0.10;;;6.40;73.90;;;;;;20802094;28;20049;-52
2021/12/07 11:00:07;;;;;;;0.43;0.13;;;6.80;70.60;;;;;;20801599;28;20049;-52
2021/12/07 11:10:22;;;;;;;0.10;0.10;;;7.20;70.20;;;;;;20800688;28;20095;-56
2021/12/07 11:20:27;;;;;;;1.10;0.13;;;7.00;66.40;;;;;;20736865;28;20042;-54
2021/12/07 11:30:30;;;;;;;0.10;0.00;;;7.00;66.90;;;;;;20702629;28;20446;-55
2021/12/07 11:40:38;;;;;;;1.85;0.10;;;6.80;62.20;;;;;;20806208;28;20563;-55
2021/12/07 11:50:50;;;;;;;0.00;0.00;;;5.90;62.90;;;;;;20815894;28;20037;-54
2021/12/07 12:00:57;;;;;;;0.20;0.00;;;5.30;61.90;;;;;;20816004;28;20123;-56
2021/12/07 12:11:45;;;;;;;0.13;0.00;;;5.10;63.80;;;;;;20814701;28;20490;-56
2021/12/07 12:22:14;;;;;;;0.08;0.00;;;5.50;63.90;;;;;;20814383;28;20045;-53
2021/12/07 12:32:41;;;;;;;2.05;0.10;;;4.90;62.50;;;;;;20811834;28;20472;-53
2021/12/07 12:42:47;;;;;;;0.30;0.08;;;5.80;64.40;;;;;;20810873;28;20029;-57
2021/12/07 12:52:53;;;;;;;2.10;0.10;;;6.30;69.50;;;;;;20810342;28;20087;-56
2021/12/07 13:03:09;;;;;;;1.48;0.00;;;6.40;63.40;;;;;;20810799;28;20207;-52
2021/12/07 13:13:47;;;;;;;0.10;0.00;;;5.10;62.70;;;;;;20810880;28;20045;-54
2021/12/07 13:24:16;;;;;;;0.52;0.15;;;4.20;68.40;;;;;;20556493;28;20505;-52
2021/12/07 13:34:27;;;;;;;0.30;0.05;;;3.50;70.90;;;;;;20552044;28;20176;-56
2021/12/07 13:44:33;;;;;;;0.65;0.05;;;2.80;68.70;;;;;;20444284;28;20098;-54
2021/12/07 13:54:41;;;;;;;0.00;0.00;;;2.40;70.80;;;;;;20567958;28;20041;-58
2021/12/07 14:04:44;;;;;;;0.63;0.10;;;2.20;71.60;;;;;;20724049;28;20038;-56
2021/12/07 14:14:48;;;;;;;2.83;0.10;;;1.90;72.50;;;;;;20723359;28;20368;-55
2021/12/07 14:24:53;;;;;;;0.10;0.00;;;1.70;72.20;;;;;;20722562;28;20152;-56
2021/12/07 14:35:00;;;;;;;0.85;0.00;;;1.40;76.10;;;;;;20746784;28;20107;-56
2021/12/07 14:45:03;;;;;;;0.00;0.00;;;0.90;76.10;;;;;;20802532;28;20097;-57
2021/12/07 14:55:06;;;;;;;1.95;0.10;;;0.40;76.90;;;;;;20801877;28;20033;-55
2021/12/07 15:05:11;;;;;;;0.47;0.00;;;-0.50;78.70;;;;;;20801504;28;20038;-49
2021/12/07 15:15:15;;;;;;;0.38;0.00;;;-1.20;83.40;;;;;;20799958;28;20457;-53
2021/12/07 15:25:19;;;;;;;0.10;0.00;;;-1.70;90.40;;;;;;20800339;28;20095;-51
2021/12/07 15:35:24;;;;;;;0.38;0.10;;;-2.10;91.20;;;;;;20799720;28;20041;-50
2021/12/07 15:45:27;;;;;;;0.00;0.00;;;-2.20;86.10;;;;;;20799316;28;20498;-49
2021/12/07 15:55:37;;;;;;;0.00;0.00;;;-2.50;90.80;;;;;;20799042;28;20037;-50
2021/12/07 16:05:43;;;;;;;0.10;0.00;;;-2.60;90.50;;;;;;20798463;28;20037;-50
2021/12/07 16:15:54;;;;;;;0.40;0.10;;;-2.70;89.80;;;;;;20757214;28;20100;-52
2021/12/07 16:25:58;;;;;;;0.00;0.00;;;-2.60;90.30;;;;;;20729212;28;20037;-48
2021/12/07 16:36:03;;;;;;;0.10;0.08;;;-2.70;88.50;;;;;;20764853;28;20049;-49
2021/12/07 16:46:07;;;;;;;0.13;0.00;;;-3.00;91.90;;;;;;20811323;28;20033;-50
2021/12/07 16:56:10;;;;;;;0.00;0.00;;;-3.20;91.10;;;;;;20810506;28;20033;-50
2021/12/07 17:06:14;;;;;;;0.00;0.00;;;-3.00;90.60;;;;;;20810474;28;20041;-51
2021/12/07 17:16:17;;;;;;;0.10;0.00;;;-2.90;91.40;;;;;;20808948;28;20099;-50
2021/12/07 17:26:21;;;;;;;0.82;0.00;;;-3.20;88.80;;;;;;20792389;28;20104;-51
2021/12/07 17:36:25;;;;;;;0.10;0.00;;;-3.00;91.20;;;;;;20806692;28;20045;-50
2021/12/07 17:46:29;;;;;;;0.00;0.00;;;-3.40;90.10;;;;;;20728623;28;20403;-49
2021/12/07 17:56:32;;;;;;;0.30;0.03;;;-3.30;90.80;;;;;;20708226;28;20359;-51
2021/12/07 18:06:35;;;;;;;1.25;0.00;;;-3.50;91.80;;;;;;20723814;28;20042;-50
2021/12/07 18:16:38;;;;;;;0.65;0.10;;;-3.60;92.20;;;;;;20770991;28;20042;-50
2021/12/07 18:26:40;;;;;;;0.57;0.00;;;-3.60;92.60;;;;;;20787526;28;20441;-50
2021/12/07 18:36:43;;;;;;;0.03;0.00;;;-3.60;92.10;;;;;;20802937;28;20572;-49
2021/12/07 18:46:46;;;;;;;0.15;0.00;;;-3.60;92.80;;;;;;20801528;28;20037;-49
2021/12/07 18:56:49;;;;;;;0.10;0.00;;;-3.60;92.60;;;;;;20801702;28;20042;-49
2021/12/07 19:06:51;;;;;;;0.45;0.00;;;-3.40;92.60;;;;;;20801414;28;20037;-49
2021/12/07 19:16:54;;;;;;;1.77;0.10;;;-3.30;92.10;;;;;;20750042;28;20034;-50
2021/12/07 19:26:58;;;;;;;0.30;0.00;;;-3.00;91.80;;;;;;20718913;28;20063;-52
2021/12/07 19:37:03;;;;;;;0.15;0.00;;;-2.90;92.50;;;;;;20760432;28;20042;-48
2021/12/07 19:47:05;;;;;;;0.10;0.00;;;-2.80;92.30;;;;;;20800609;28;20057;-51
2021/12/07 19:57:09;;;;;;;0.20;0.00;;;-2.80;93.90;;;;;;20808000;28;20482;-49
2021/12/07 20:07:13;;;;;;;0.13;0.00;;;-2.80;93.20;;;;;;20814668;28;20045;-50
2021/12/07 20:17:18;;;;;;;0.20;0.10;;;-2.90;93.10;;;;;;20813362;28;20103;-49
2021/12/07 20:27:20;;;;;;;1.27;0.30;;;-3.10;93.70;;;;;;20813205;28;20060;-52
2021/12/07 20:37:23;;;;;;;0.22;0.05;;;-3.30;94.30;;;;;;20811981;28;20053;-49
2021/12/07 20:47:27;;;;;;;0.00;0.00;;;-3.30;93.90;;;;;;20811081;28;20041;-49
2021/12/07 20:57:30;;;;;;;0.40;0.10;;;-3.20;94.10;;;;;;20810717;28;20033;-49
2021/12/07 21:07:32;;;;;;;0.75;0.10;;;-3.20;94.60;;;;;;20809990;28;20092;-50
2021/12/07 21:17:36;;;;;;;0.15;0.05;;;-3.10;95.60;;;;;;20752734;28;20100;-49
2021/12/07 21:27:40;;;;;;;0.80;0.20;;;-3.00;95.30;;;;;;20726451;28;20038;-50
2021/12/07 21:37:43;;;;;;;0.08;0.08;;;-2.90;95.00;;;;;;20773699;28;20053;-50
2021/12/07 21:47:46;;;;;;;0.35;0.10;;;-2.80;95.50;;;;;;20806578;28;20033;-49
2021/12/07 21:57:51;;;;;;;0.17;0.10;;;-2.60;95.70;;;;;;20806053;28;20037;-49
2021/12/07 22:07:54;;;;;;;0.20;0.10;;;-2.60;96.30;;;;;;20805355;28;20402;-49
2021/12/07 22:17:57;;;;;;;0.30;0.03;;;-2.50;96.40;;;;;;20803457;28;20542;-50
2021/12/07 22:28:00;;;;;;;0.25;0.10;;;-2.60;96.30;;;;;;20803853;28;20033;-50
2021/12/07 22:38:03;;;;;;;0.52;0.20;;;-2.90;97.10;;;;;;20802830;28;20084;-51
2021/12/07 22:48:06;;;;;;;1.15;0.28;;;-3.20;97.80;;;;;;20802504;28;20037;-51
2021/12/07 22:58:10;;;;;;;3.92;0.30;;;-3.40;96.70;;;;;;20801852;28;20103;-49
2021/12/07 23:08:15;;;;;;;0.70;0.22;;;-3.70;96.20;;;;;;20801054;28;20121;-50
2021/12/07 23:18:22;;;;;;;0.63;0.13;;;-4.00;96.10;;;;;;20738547;28;20038;-50
2021/12/07 23:28:29;;;;;;;1.42;0.32;;;-4.10;97.40;;;;;;20705668;28;20099;-49
2021/12/07 23:38:32;;;;;;;0.63;0.20;;;-4.10;97.10;;;;;;20789449;28;20049;-49
2021/12/07 23:48:35;;;;;;;1.20;0.30;;;-4.10;97.20;;;;;;20815788;28;20088;-50
2021/12/07 23:58:40;;;;;;;1.02;0.20;;;-4.20;97.10;;;;;;20815197;28;20026;-51
